SMF weather

Sacramento International Airport
Sacramento, California, United States

Public forecast

Using degrees Fahrenheit for public forecast. Weather courtesy of forecast.io.

METAR (pilot weather report)

Retrieved 2019/06/26 06:53 UTC (14 minutes ago):

KSMF 260653Z 15009KT 10SM FEW240 19/08 A2981 RMK AO2 SLP095 T01890078

TAF (pilot weather forecast)

Retrieved 2019/06/26 06:22 UTC (45 minutes ago):

TAF KSMF 260520Z 2606/2706 18009KT P6SM FEW250 FM262000 20014G20KT P6SM SCT250 FM270500 19009KT P6SM SKC